Soliel — SOLIEL — position and weather

sailwx.info

Track history (hours):
 
Tides and Currents Weather Stations Pressure Air Temp Water Temp Dewpoint Dewpoint Depression Visibility Wind Speed Wind Dir Waves Ship Positions

Soliel

Last reported at 2017-Oct-08 21:04 UTC. Time now 2017-Oct-20 01:47 UTC.
Position S 32°52' E 151°56'.
Warning: this ship's position is 11 days out of date.

Length 13 m.

Type: Sailing vessel. MMSI: 503687600.

Date/timePositionNaut miles runAvg speedWind from/ knotsBaromVisibWave heightAir tempDewpointWater temp
2017-Oct-08 21:04S 32°52' E 151°56'0 5.8
2017-Oct-08 21:00S 32°52' E 151°56'3 6.2
2017-Oct-08 20:30S 32°51' E 151°60'3 6.1
2017-Oct-08 20:00S 32°49' E 152°03'3 6.4
2017-Oct-08 19:30S 32°48' E 152°07'3 5.9
2017-Oct-08 19:00S 32°47' E 152°10'3 6.1
2017-Oct-08 18:30S 32°45' E 152°13'3 6.2
2017-Oct-08 18:00S 32°43' E 152°16'3 6.1
2017-Oct-08 17:30S 32°41' E 152°18'3 6.3
2017-Oct-08 17:00S 32°39' E 152°21'4 6.1
2017-Oct-08 16:21S 32°37' E 152°25'  
2017-Oct-05 03:49S 28°25' E 153°38'2 5.3
2017-Oct-05 03:26S 28°23' E 153°38'3 5.7
2017-Oct-05 02:59S 28°21' E 153°38'3 5.9
2017-Oct-05 02:29S 28°18' E 153°37'3 5.7
2017-Oct-05 02:00S 28°15' E 153°37'4 6.4
2017-Oct-05 01:18S 28°11' E 153°36'2 6.1
2017-Oct-05 00:59S 28°09' E 153°35'3 6.3
2017-Oct-05 00:28S 28°06' E 153°34'3 5.8
2017-Oct-05 00:00S 28°04' E 153°32'3 5.6
2017-Oct-04 23:30S 28°01' E 153°31'3 5.6
2017-Oct-04 22:59S 27°59' E 153°29'3 5.8
2017-Oct-04 22:29S 27°57' E 153°27'1 2.8
2017-Oct-04 21:59S 27°57' E 153°25'1 2.2
2017-Oct-04 21:29S 27°58' E 153°26'0 0.0
2017-Oct-04 18:32S 27°58' E 153°26'0 0.0
2017-Oct-04 18:26S 27°58' E 153°26'0 0.0
2017-Oct-04 17:59S 27°58' E 153°26'0 0.0
2017-Oct-04 17:29S 27°58' E 153°26'0 0.0
2017-Oct-04 16:59S 27°58' E 153°26'0 0.0
2017-Oct-04 16:29S 27°58' E 153°26'0 0.0
2017-Oct-04 14:41S 27°58' E 153°26'0 0.0
2017-Oct-04 11:05S 27°58' E 153°26'0 0.0
2017-Oct-04 10:47S 27°58' E 153°26'0 0.0
2017-Oct-04 10:23S 27°58' E 153°26'0 0.0
2017-Oct-04 09:47S 27°58' E 153°26'0 0.0
2017-Oct-04 08:38S 27°58' E 153°26'0 0.0
2017-Oct-04 08:29S 27°58' E 153°26'0 0.0
2017-Oct-04 07:47S 27°58' E 153°26'0 0.0
2017-Oct-04 07:24S 27°58' E 153°26'0 0.0
2017-Oct-04 06:17S 27°58' E 153°26'0 0.0
2017-Oct-04 05:47S 27°58' E 153°26'0 0.0
2017-Oct-04 05:23S 27°58' E 153°26'0 0.0
2017-Oct-04 04:59S 27°58' E 153°26'0 0.0
2017-Oct-04 04:29S 27°58' E 153°26'0 0.0
2017-Oct-04 01:11S 27°58' E 153°26'0 0.0
2017-Oct-04 00:53S 27°58' E 153°26'0 0.0
2017-Oct-04 00:17S 27°58' E 153°26'0 0.0
2017-Oct-03 23:59S 27°58' E 153°26'0 0.0
2017-Oct-03 23:29S 27°58' E 153°26'0 0.0
2017-Oct-03 22:59S 27°58' E 153°26'0 0.0
2017-Oct-03 22:29S 27°58' E 153°26'0 0.0
2017-Oct-03 21:53S 27°58' E 153°26'0 0.0
2017-Oct-03 21:23S 27°58' E 153°26'0 0.0
2017-Oct-03 20:59S 27°58' E 153°26'0 0.0
2017-Oct-03 20:29S 27°58' E 153°26'0 0.0
2017-Oct-03 19:56S 27°58' E 153°26'0 0.0
2017-Oct-03 19:28S 27°58' E 153°26'0 0.0
2017-Oct-03 18:52S 27°58' E 153°26'0 0.0
2017-Oct-03 18:25S 27°58' E 153°26'0 0.0
2017-Oct-03 17:58S 27°58' E 153°26'0 0.0
2017-Oct-03 17:25S 27°58' E 153°26'0 0.0
2017-Oct-03 16:52S 27°58' E 153°26'0 0.0
2017-Oct-03 16:22S 27°58' E 153°26'0 0.0
2017-Oct-03 15:55S 27°58' E 153°26'0 0.0
2017-Oct-03 15:25S 27°58' E 153°26'0 0.0
2017-Oct-03 14:55S 27°58' E 153°26'0 0.0
2017-Oct-03 13:58S 27°58' E 153°26'0 0.0
2017-Oct-03 13:28S 27°58' E 153°26'0 0.0
2017-Oct-03 12:58S 27°58' E 153°26'0 0.0
2017-Oct-03 12:10S 27°58' E 153°26'0 0.0
2017-Oct-03 11:58S 27°58' E 153°26'0 0.0
2017-Oct-03 10:43S 27°58' E 153°26'0 0.0
2017-Oct-03 10:25S 27°58' E 153°26'0 0.0
2017-Oct-03 09:58S 27°58' E 153°26'0 0.0
2017-Oct-03 09:28S 27°58' E 153°26'0 0.0
2017-Oct-03 08:55S 27°58' E 153°26'0 0.0
2017-Oct-03 08:28S 27°58' E 153°26'0 0.0
2017-Oct-03 07:55S 27°58' E 153°26'0 0.0
2017-Oct-03 07:17S 27°58' E 153°26'0 0.0
2017-Oct-03 06:53S 27°58' E 153°26'0 0.0
2017-Oct-03 06:29S 27°58' E 153°26'0 0.0
2017-Oct-03 05:32S 27°58' E 153°26'0 0.0
2017-Oct-03 05:23S 27°58' E 153°26'0 0.0
2017-Oct-03 04:59S 27°58' E 153°26'0 0.0
2017-Oct-03 04:23S 27°58' E 153°26'0 0.0
2017-Oct-03 03:47S 27°58' E 153°26'0 0.0
2017-Oct-03 02:41S 27°58' E 153°26'0 0.0
2017-Oct-03 02:11S 27°58' E 153°26'0 0.0
2017-Oct-02 23:56S 27°58' E 153°26'0 0.0
2017-Oct-02 23:26S 27°58' E 153°26'0 0.0
2017-Oct-02 22:53S 27°58' E 153°26'0 0.0
2017-Oct-02 22:26S 27°58' E 153°26'0 0.0
2017-Oct-02 21:53S 27°58' E 153°26'0 0.0
2017-Oct-02 21:29S 27°58' E 153°26'0 0.0
2017-Oct-02 20:53S 27°58' E 153°26'0 0.0
2017-Oct-02 20:26S 27°58' E 153°26'0 0.0
2017-Oct-02 19:53S 27°58' E 153°26'0 0.0
2017-Oct-02 19:29S 27°58' E 153°26'0 0.0
2017-Oct-02 18:47S 27°58' E 153°26'0 0.0
2017-Oct-02 18:29S 27°58' E 153°26'0 0.0
2017-Oct-02 17:53S 27°58' E 153°26'0 0.0
2017-Oct-02 17:30S 27°58' E 153°26'0 0.0
2017-Oct-02 16:56S 27°58' E 153°26'0 0.0
2017-Oct-02 16:26S 27°58' E 153°26'0 0.0
2017-Oct-02 15:59S 27°58' E 153°26'0 0.0
2017-Oct-02 15:30S 27°58' E 153°26'0 0.0
2017-Oct-02 14:30S 27°58' E 153°26'0 0.0
2017-Oct-02 13:54S 27°58' E 153°26'0 0.0
2017-Oct-02 12:48S 27°58' E 153°26'0 0.0
2017-Oct-02 12:12S 27°58' E 153°26'0 0.0
2017-Oct-02 11:45S 27°58' E 153°26'0 0.0
2017-Oct-02 11:30S 27°58' E 153°26'0 0.0
2017-Oct-02 10:57S 27°58' E 153°26'0 0.0
2017-Oct-02 10:23S 27°58' E 153°26'0 0.0
2017-Oct-02 09:53S 27°58' E 153°26'0 0.0
2017-Oct-02 09:30S 27°58' E 153°26'0 0.0
2017-Oct-02 09:00S 27°58' E 153°26'0 0.0
2017-Oct-02 08:22S 27°58' E 153°26'0 0.0
2017-Oct-02 07:58S 27°58' E 153°26'0 0.0
2017-Oct-02 07:28S 27°58' E 153°26'0 0.0
2017-Oct-02 06:52S 27°58' E 153°26'0 0.0
2017-Oct-02 06:28S 27°58' E 153°26'0 0.0
2017-Oct-02 05:55S 27°58' E 153°26'0 0.0
2017-Oct-02 05:28S 27°58' E 153°26'0 0.0
2017-Oct-02 04:58S 27°58' E 153°26'0 0.0
2017-Oct-02 00:16S 27°58' E 153°26'0 0.0
2017-Oct-01 23:52S 27°58' E 153°26'0 0.0
2017-Oct-01 23:28S 27°58' E 153°26'0 0.0
2017-Oct-01 22:58S 27°58' E 153°26'0 0.0
2017-Oct-01 22:16S 27°58' E 153°26'0 0.0
2017-Oct-01 21:58S 27°58' E 153°26'0 0.0
2017-Oct-01 21:10S 27°58' E 153°26'0 0.1
2017-Oct-01 20:55S 27°58' E 153°26'0 0.0
2017-Oct-01 19:34S 27°58' E 153°26'0 0.1
2017-Oct-01 19:28S 27°58' E 153°26'0 0.0
2017-Oct-01 18:52S 27°58' E 153°26'0 0.0
2017-Oct-01 18:28S 27°58' E 153°26'0 0.0
2017-Oct-01 17:52S 27°58' E 153°26'0 0.0
2017-Oct-01 17:25S 27°58' E 153°26'0 0.0
2017-Oct-01 16:46S 27°58' E 153°26'0 0.0
2017-Oct-01 16:28S 27°58' E 153°26'0 0.0
2017-Oct-01 15:58S 27°58' E 153°26'0 0.0
2017-Oct-01 15:28S 27°58' E 153°26'0 0.0
2017-Oct-01 14:55S 27°58' E 153°26'0 0.0
2017-Oct-01 14:28S 27°58' E 153°26'0 0.0
2017-Oct-01 13:58S 27°58' E 153°26'0 0.0
2017-Oct-01 13:28S 27°58' E 153°26'0 0.0
2017-Oct-01 12:58S 27°58' E 153°26'0 0.0
2017-Oct-01 12:28S 27°58' E 153°26'0 0.0
2017-Oct-01 11:58S 27°58' E 153°26'0 0.0
2017-Oct-01 11:28S 27°58' E 153°26'0 0.0
2017-Oct-01 10:58S 27°58' E 153°26'0 0.0
2017-Oct-01 10:28S 27°58' E 153°26'0 0.0
2017-Oct-01 09:58S 27°58' E 153°26'0 0.0
2017-Oct-01 09:19S 27°58' E 153°26'0 0.0
2017-Oct-01 08:58S 27°58' E 153°26'0 0.0
2017-Oct-01 03:26S 27°58' E 153°26'0 0.0
2017-Oct-01 02:59S 27°58' E 153°26'0 0.0
2017-Sep-29 23:02S 27°58' E 153°26'0 0.0
2017-Sep-29 22:56S 27°58' E 153°26'0 0.0
2017-Sep-29 22:26S 27°58' E 153°26'0 0.0
2017-Sep-29 21:50S 27°58' E 153°26'0 0.0
2017-Sep-29 21:29S 27°58' E 153°26'0 0.0
2017-Sep-29 20:56S 27°58' E 153°26'0 0.0
2017-Sep-29 12:47S 27°58' E 153°26'0 0.0
2017-Sep-29 12:29S 27°58' E 153°26'0 0.0
2017-Sep-29 11:56S 27°58' E 153°26'0 0.0
2017-Sep-29 11:29S 27°58' E 153°26'0 0.0
2017-Sep-29 09:11S 27°58' E 153°26'0 0.0
2017-Sep-29 08:59S 27°58' E 153°26'0 0.0
2017-Sep-29 08:30S 27°58' E 153°26'0 0.0
2017-Sep-29 07:55S 27°58' E 153°26'0 0.0
2017-Sep-29 07:28S 27°58' E 153°26'0 0.0
2017-Sep-29 06:52S 27°58' E 153°26'0 0.0
2017-Sep-29 06:28S 27°58' E 153°26'0 0.0
2017-Sep-29 05:58S 27°58' E 153°26'0 0.0
2017-Sep-29 05:28S 27°58' E 153°26'0 0.0
2017-Sep-29 05:00S 27°58' E 153°26'0 0.0
2017-Sep-29 04:30S 27°58' E 153°26'0 0.0
2017-Sep-29 04:00S 27°58' E 153°26'0 0.0
2017-Sep-29 03:30S 27°58' E 153°26'0 0.0
2017-Sep-29 02:51S 27°58' E 153°26'0 0.0
2017-Sep-29 02:30S 27°58' E 153°26'0 0.0
2017-Sep-29 02:00S 27°58' E 153°26'0 0.0
2017-Sep-29 01:27S 27°58' E 153°26'0 0.0
2017-Sep-29 01:00S 27°58' E 153°26'0 0.0
2017-Sep-29 00:30S 27°58' E 153°26'0 0.0
2017-Sep-29 00:00S 27°58' E 153°26'0 0.0
2017-Sep-28 23:30S 27°58' E 153°26'0 0.0
2017-Sep-28 23:00S 27°58' E 153°26'0 0.0
2017-Sep-28 22:30S 27°58' E 153°26'0 0.0
2017-Sep-28 22:00S 27°58' E 153°26'0 0.0
2017-Sep-28 21:30S 27°58' E 153°26'  
Track history (hours):
 
Tides and Currents Weather Stations Pressure Air Temp Water Temp Dewpoint Dewpoint Depression Visibility Wind Speed Wind Dir Waves Ship Positions

Soliel

Last reported at 2017-Oct-08 21:04 UTC. Time now 2017-Oct-20 01:47 UTC.
Position S 32°52' E 151°56'.
Warning: this ship's position is 11 days out of date.

Length 13 m.

Type: Sailing vessel. MMSI: 503687600.

Date/timePositionNaut miles runAvg speedWind from/ knotsBaromVisibWave heightAir tempDewpointWater temp
2017-Oct-08 21:04S 32°52' E 151°56'0 5.8
2017-Oct-08 21:00S 32°52' E 151°56'3 6.2
2017-Oct-08 20:30S 32°51' E 151°60'3 6.1
2017-Oct-08 20:00S 32°49' E 152°03'3 6.4
2017-Oct-08 19:30S 32°48' E 152°07'3 5.9
2017-Oct-08 19:00S 32°47' E 152°10'3 6.1
2017-Oct-08 18:30S 32°45' E 152°13'3 6.2
2017-Oct-08 18:00S 32°43' E 152°16'3 6.1
2017-Oct-08 17:30S 32°41' E 152°18'3 6.3
2017-Oct-08 17:00S 32°39' E 152°21'4 6.1
2017-Oct-08 16:21S 32°37' E 152°25'  
2017-Oct-05 03:49S 28°25' E 153°38'2 5.3
2017-Oct-05 03:26S 28°23' E 153°38'3 5.7
2017-Oct-05 02:59S 28°21' E 153°38'3 5.9
2017-Oct-05 02:29S 28°18' E 153°37'3 5.7
2017-Oct-05 02:00S 28°15' E 153°37'4 6.4
2017-Oct-05 01:18S 28°11' E 153°36'2 6.1
2017-Oct-05 00:59S 28°09' E 153°35'3 6.3
2017-Oct-05 00:28S 28°06' E 153°34'3 5.8
2017-Oct-05 00:00S 28°04' E 153°32'3 5.6
2017-Oct-04 23:30S 28°01' E 153°31'3 5.6
2017-Oct-04 22:59S 27°59' E 153°29'3 5.8
2017-Oct-04 22:29S 27°57' E 153°27'1 2.8
2017-Oct-04 21:59S 27°57' E 153°25'1 2.2
2017-Oct-04 21:29S 27°58' E 153°26'0 0.0
2017-Oct-04 18:32S 27°58' E 153°26'0 0.0
2017-Oct-04 18:26S 27°58' E 153°26'0 0.0
2017-Oct-04 17:59S 27°58' E 153°26'0 0.0
2017-Oct-04 17:29S 27°58' E 153°26'0 0.0
2017-Oct-04 16:59S 27°58' E 153°26'0 0.0
2017-Oct-04 16:29S 27°58' E 153°26'0 0.0
2017-Oct-04 14:41S 27°58' E 153°26'0 0.0
2017-Oct-04 11:05S 27°58' E 153°26'0 0.0
2017-Oct-04 10:47S 27°58' E 153°26'0 0.0
2017-Oct-04 10:23S 27°58' E 153°26'0 0.0
2017-Oct-04 09:47S 27°58' E 153°26'0 0.0
2017-Oct-04 08:38S 27°58' E 153°26'0 0.0
2017-Oct-04 08:29S 27°58' E 153°26'0 0.0
2017-Oct-04 07:47S 27°58' E 153°26'0 0.0
2017-Oct-04 07:24S 27°58' E 153°26'0 0.0
2017-Oct-04 06:17S 27°58' E 153°26'0 0.0
2017-Oct-04 05:47S 27°58' E 153°26'0 0.0
2017-Oct-04 05:23S 27°58' E 153°26'0 0.0
2017-Oct-04 04:59S 27°58' E 153°26'0 0.0
2017-Oct-04 04:29S 27°58' E 153°26'0 0.0
2017-Oct-04 01:11S 27°58' E 153°26'0 0.0
2017-Oct-04 00:53S 27°58' E 153°26'0 0.0
2017-Oct-04 00:17S 27°58' E 153°26'0 0.0
2017-Oct-03 23:59S 27°58' E 153°26'0 0.0
2017-Oct-03 23:29S 27°58' E 153°26'0 0.0
2017-Oct-03 22:59S 27°58' E 153°26'0 0.0
2017-Oct-03 22:29S 27°58' E 153°26'0 0.0
2017-Oct-03 21:53S 27°58' E 153°26'0 0.0
2017-Oct-03 21:23S 27°58' E 153°26'0 0.0
2017-Oct-03 20:59S 27°58' E 153°26'0 0.0
2017-Oct-03 20:29S 27°58' E 153°26'0 0.0
2017-Oct-03 19:56S 27°58' E 153°26'0 0.0
2017-Oct-03 19:28S 27°58' E 153°26'0 0.0
2017-Oct-03 18:52S 27°58' E 153°26'0 0.0
2017-Oct-03 18:25S 27°58' E 153°26'0 0.0
2017-Oct-03 17:58S 27°58' E 153°26'0 0.0
2017-Oct-03 17:25S 27°58' E 153°26'0 0.0
2017-Oct-03 16:52S 27°58' E 153°26'0 0.0
2017-Oct-03 16:22S 27°58' E 153°26'0 0.0
2017-Oct-03 15:55S 27°58' E 153°26'0 0.0
2017-Oct-03 15:25S 27°58' E 153°26'0 0.0
2017-Oct-03 14:55S 27°58' E 153°26'0 0.0
2017-Oct-03 13:58S 27°58' E 153°26'0 0.0
2017-Oct-03 13:28S 27°58' E 153°26'0 0.0
2017-Oct-03 12:58S 27°58' E 153°26'0 0.0
2017-Oct-03 12:10S 27°58' E 153°26'0 0.0
2017-Oct-03 11:58S 27°58' E 153°26'0 0.0
2017-Oct-03 10:43S 27°58' E 153°26'0 0.0
2017-Oct-03 10:25S 27°58' E 153°26'0 0.0
2017-Oct-03 09:58S 27°58' E 153°26'0 0.0
2017-Oct-03 09:28S 27°58' E 153°26'0 0.0
2017-Oct-03 08:55S 27°58' E 153°26'0 0.0
2017-Oct-03 08:28S 27°58' E 153°26'0 0.0
2017-Oct-03 07:55S 27°58' E 153°26'0 0.0
2017-Oct-03 07:17S 27°58' E 153°26'0 0.0
2017-Oct-03 06:53S 27°58' E 153°26'0 0.0
2017-Oct-03 06:29S 27°58' E 153°26'0 0.0
2017-Oct-03 05:32S 27°58' E 153°26'0 0.0
2017-Oct-03 05:23S 27°58' E 153°26'0 0.0
2017-Oct-03 04:59S 27°58' E 153°26'0 0.0
2017-Oct-03 04:23S 27°58' E 153°26'0 0.0
2017-Oct-03 03:47S 27°58' E 153°26'0 0.0
2017-Oct-03 02:41S 27°58' E 153°26'0 0.0
2017-Oct-03 02:11S 27°58' E 153°26'0 0.0
2017-Oct-02 23:56S 27°58' E 153°26'0 0.0
2017-Oct-02 23:26S 27°58' E 153°26'0 0.0
2017-Oct-02 22:53S 27°58' E 153°26'0 0.0
2017-Oct-02 22:26S 27°58' E 153°26'0 0.0
2017-Oct-02 21:53S 27°58' E 153°26'0 0.0
2017-Oct-02 21:29S 27°58' E 153°26'0 0.0
2017-Oct-02 20:53S 27°58' E 153°26'0 0.0
2017-Oct-02 20:26S 27°58' E 153°26'0 0.0
2017-Oct-02 19:53S 27°58' E 153°26'0 0.0
2017-Oct-02 19:29S 27°58' E 153°26'0 0.0
2017-Oct-02 18:47S 27°58' E 153°26'0 0.0
2017-Oct-02 18:29S 27°58' E 153°26'0 0.0
2017-Oct-02 17:53S 27°58' E 153°26'0 0.0
2017-Oct-02 17:30S 27°58' E 153°26'0 0.0
2017-Oct-02 16:56S 27°58' E 153°26'0 0.0
2017-Oct-02 16:26S 27°58' E 153°26'0 0.0
2017-Oct-02 15:59S 27°58' E 153°26'0 0.0
2017-Oct-02 15:30S 27°58' E 153°26'0 0.0
2017-Oct-02 14:30S 27°58' E 153°26'0 0.0
2017-Oct-02 13:54S 27°58' E 153°26'0 0.0
2017-Oct-02 12:48S 27°58' E 153°26'0 0.0
2017-Oct-02 12:12S 27°58' E 153°26'0 0.0
2017-Oct-02 11:45S 27°58' E 153°26'0 0.0
2017-Oct-02 11:30S 27°58' E 153°26'0 0.0
2017-Oct-02 10:57S 27°58' E 153°26'0 0.0
2017-Oct-02 10:23S 27°58' E 153°26'0 0.0
2017-Oct-02 09:53S 27°58' E 153°26'0 0.0
2017-Oct-02 09:30S 27°58' E 153°26'0 0.0
2017-Oct-02 09:00S 27°58' E 153°26'0 0.0
2017-Oct-02 08:22S 27°58' E 153°26'0 0.0
2017-Oct-02 07:58S 27°58' E 153°26'0 0.0
2017-Oct-02 07:28S 27°58' E 153°26'0 0.0
2017-Oct-02 06:52S 27°58' E 153°26'0 0.0
2017-Oct-02 06:28S 27°58' E 153°26'0 0.0
2017-Oct-02 05:55S 27°58' E 153°26'0 0.0
2017-Oct-02 05:28S 27°58' E 153°26'0 0.0
2017-Oct-02 04:58S 27°58' E 153°26'0 0.0
2017-Oct-02 00:16S 27°58' E 153°26'0 0.0
2017-Oct-01 23:52S 27°58' E 153°26'0 0.0
2017-Oct-01 23:28S 27°58' E 153°26'0 0.0
2017-Oct-01 22:58S 27°58' E 153°26'0 0.0
2017-Oct-01 22:16S 27°58' E 153°26'0 0.0
2017-Oct-01 21:58S 27°58' E 153°26'0 0.0
2017-Oct-01 21:10S 27°58' E 153°26'0 0.1
2017-Oct-01 20:55S 27°58' E 153°26'0 0.0
2017-Oct-01 19:34S 27°58' E 153°26'0 0.1
2017-Oct-01 19:28S 27°58' E 153°26'0 0.0
2017-Oct-01 18:52S 27°58' E 153°26'0 0.0
2017-Oct-01 18:28S 27°58' E 153°26'0 0.0
2017-Oct-01 17:52S 27°58' E 153°26'0 0.0
2017-Oct-01 17:25S 27°58' E 153°26'0 0.0
2017-Oct-01 16:46S 27°58' E 153°26'0 0.0
2017-Oct-01 16:28S 27°58' E 153°26'0 0.0
2017-Oct-01 15:58S 27°58' E 153°26'0 0.0
2017-Oct-01 15:28S 27°58' E 153°26'0 0.0
2017-Oct-01 14:55S 27°58' E 153°26'0 0.0
2017-Oct-01 14:28S 27°58' E 153°26'0 0.0
2017-Oct-01 13:58S 27°58' E 153°26'0 0.0
2017-Oct-01 13:28S 27°58' E 153°26'0 0.0
2017-Oct-01 12:58S 27°58' E 153°26'0 0.0
2017-Oct-01 12:28S 27°58' E 153°26'0 0.0
2017-Oct-01 11:58S 27°58' E 153°26'0 0.0
2017-Oct-01 11:28S 27°58' E 153°26'0 0.0
2017-Oct-01 10:58S 27°58' E 153°26'0 0.0
2017-Oct-01 10:28S 27°58' E 153°26'0 0.0
2017-Oct-01 09:58S 27°58' E 153°26'0 0.0
2017-Oct-01 09:19S 27°58' E 153°26'0 0.0
2017-Oct-01 08:58S 27°58' E 153°26'0 0.0
2017-Oct-01 03:26S 27°58' E 153°26'0 0.0
2017-Oct-01 02:59S 27°58' E 153°26'0 0.0
2017-Sep-29 23:02S 27°58' E 153°26'0 0.0
2017-Sep-29 22:56S 27°58' E 153°26'0 0.0
2017-Sep-29 22:26S 27°58' E 153°26'0 0.0
2017-Sep-29 21:50S 27°58' E 153°26'0 0.0
2017-Sep-29 21:29S 27°58' E 153°26'0 0.0
2017-Sep-29 20:56S 27°58' E 153°26'0 0.0
2017-Sep-29 12:47S 27°58' E 153°26'0 0.0
2017-Sep-29 12:29S 27°58' E 153°26'0 0.0
2017-Sep-29 11:56S 27°58' E 153°26'0 0.0
2017-Sep-29 11:29S 27°58' E 153°26'0 0.0
2017-Sep-29 09:11S 27°58' E 153°26'0 0.0
2017-Sep-29 08:59S 27°58' E 153°26'0 0.0
2017-Sep-29 08:30S 27°58' E 153°26'0 0.0
2017-Sep-29 07:55S 27°58' E 153°26'0 0.0
2017-Sep-29 07:28S 27°58' E 153°26'0 0.0
2017-Sep-29 06:52S 27°58' E 153°26'0 0.0
2017-Sep-29 06:28S 27°58' E 153°26'0 0.0
2017-Sep-29 05:58S 27°58' E 153°26'0 0.0
2017-Sep-29 05:28S 27°58' E 153°26'0 0.0
2017-Sep-29 05:00S 27°58' E 153°26'0 0.0
2017-Sep-29 04:30S 27°58' E 153°26'0 0.0
2017-Sep-29 04:00S 27°58' E 153°26'0 0.0
2017-Sep-29 03:30S 27°58' E 153°26'0 0.0
2017-Sep-29 02:51S 27°58' E 153°26'0 0.0
2017-Sep-29 02:30S 27°58' E 153°26'0 0.0
2017-Sep-29 02:00S 27°58' E 153°26'0 0.0
2017-Sep-29 01:27S 27°58' E 153°26'0 0.0
2017-Sep-29 01:00S 27°58' E 153°26'0 0.0
2017-Sep-29 00:30S 27°58' E 153°26'0 0.0
2017-Sep-29 00:00S 27°58' E 153°26'0 0.0
2017-Sep-28 23:30S 27°58' E 153°26'0 0.0
2017-Sep-28 23:00S 27°58' E 153°26'0 0.0
2017-Sep-28 22:30S 27°58' E 153°26'0 0.0
2017-Sep-28 22:00S 27°58' E 153°26'0 0.0
2017-Sep-28 21:30S 27°58' E 153°26'  

Dump ship's entire track history